createdAt,value
2023-03-04T00:00:47.258Z,70.72
2023-03-04T00:03:16.508Z,71.30
2023-03-04T00:05:44.933Z,71.83
2023-03-04T00:08:13.246Z,71.24
2023-03-04T00:10:41.560Z,71.64
2023-03-04T00:13:09.897Z,71.82
2023-03-04T00:15:38.260Z,71.96
2023-03-04T00:18:06.665Z,72.93
2023-03-04T00:20:35.005Z,72.64
2023-03-04T00:23:03.319Z,72.86
2023-03-04T00:25:31.751Z,71.67
2023-03-04T00:28:00.266Z,72.29
2023-03-04T00:30:28.885Z,73.32
2023-03-04T00:32:57.203Z,69.04
2023-03-04T00:35:25.660Z,70.87
2023-03-04T00:37:54.073Z,68.84
2023-03-04T00:40:22.410Z,70.25
2023-03-04T00:42:50.817Z,70.50
2023-03-04T00:45:19.279Z,69.60
2023-03-04T00:47:47.614Z,68.03
2023-03-04T00:50:16.135Z,68.27
2023-03-04T00:52:44.539Z,66.54
2023-03-04T00:55:12.955Z,68.25
2023-03-04T00:57:41.306Z,67.89
2023-03-04T01:00:10.401Z,67.68
2023-03-04T01:02:38.809Z,67.48
2023-03-04T01:05:07.990Z,67.13
2023-03-04T01:07:36.312Z,66.67
2023-03-04T01:10:05.015Z,66.92
2023-03-04T01:12:33.374Z,67.48
2023-03-04T01:15:01.825Z,67.22
2023-03-04T01:17:30.129Z,65.80
2023-03-04T01:19:58.495Z,65.87
2023-03-04T01:22:26.827Z,65.24
2023-03-04T01:24:55.416Z,65.13
2023-03-04T01:27:23.803Z,65.05
2023-03-04T01:29:52.108Z,64.49
2023-03-04T01:32:20.497Z,65.90
2023-03-04T01:34:48.880Z,65.48
2023-03-04T01:37:17.280Z,65.78
2023-03-04T01:39:45.594Z,65.11
2023-03-04T01:42:23.322Z,65.21
2023-03-04T01:44:53.575Z,64.95
2023-03-04T01:47:25.574Z,64.69
2023-03-04T01:49:57.224Z,64.79
2023-03-04T01:52:26.845Z,64.97
2023-03-04T01:54:55.485Z,63.87
2023-03-04T01:57:26.521Z,64.05
2023-03-04T02:00:25.341Z,64.68
2023-03-04T02:03:03.975Z,64.46
2023-03-04T02:05:32.592Z,64.45
2023-03-04T02:08:02.591Z,65.25
2023-03-04T02:10:31.171Z,64.47
2023-03-04T02:13:01.090Z,64.37
2023-03-04T02:15:31.077Z,63.35
2023-03-04T02:17:59.500Z,63.43
2023-03-04T02:20:52.802Z,64.22
2023-03-04T02:23:21.159Z,63.98
2023-03-04T02:26:14.330Z,64.27
2023-03-04T02:28:43.142Z,64.02
2023-03-04T02:31:36.644Z,60.96
2023-03-04T02:34:08.426Z,62.39
2023-03-04T02:36:38.412Z,61.83
2023-03-04T02:39:16.337Z,61.82
2023-03-04T02:41:44.902Z,61.94
2023-03-04T02:44:22.592Z,61.11
2023-03-04T02:46:51.540Z,60.07
2023-03-04T02:49:21.441Z,60.17
2023-03-04T02:51:54.092Z,60.53
2023-03-04T02:54:24.975Z,60.33
2023-03-04T02:56:55.705Z,60.23
2023-03-04T02:59:24.746Z,59.96
2023-03-04T03:01:53.240Z,59.97
2023-03-04T03:04:22.959Z,59.79
2023-03-04T03:06:51.335Z,58.96
2023-03-04T03:09:21.207Z,59.04
2023-03-04T03:11:49.765Z,58.33
2023-03-04T03:14:18.135Z,60.06
2023-03-04T03:16:46.479Z,57.79
2023-03-04T03:19:14.794Z,57.34
2023-03-04T03:21:43.123Z,58.28
2023-03-04T03:24:11.418Z,56.10
2023-03-04T03:26:40.919Z,57.48
2023-03-04T03:29:09.226Z,57.31
2023-03-04T03:31:37.616Z,57.51
2023-03-04T03:34:05.905Z,57.49
2023-03-04T03:36:34.292Z,55.43
2023-03-04T03:39:02.690Z,55.04
2023-03-04T03:41:30.984Z,55.66
2023-03-04T03:43:59.395Z,53.30
2023-03-04T03:46:28.282Z,53.35
2023-03-04T03:48:56.584Z,54.65
2023-03-04T03:51:25.036Z,54.76
2023-03-04T03:53:53.415Z,53.69
2023-03-04T03:56:21.749Z,55.23
2023-03-04T03:58:50.063Z,53.17
2023-03-04T04:01:18.437Z,54.81
2023-03-04T04:03:46.815Z,53.74
2023-03-04T04:06:15.156Z,53.71
2023-03-04T04:08:43.668Z,54.38
2023-03-04T04:11:13.327Z,52.66
2023-03-04T04:13:41.638Z,54.15
2023-03-04T04:16:11.514Z,54.54
2023-03-04T04:18:39.900Z,52.50
2023-03-04T04:21:08.219Z,52.24
2023-03-04T04:23:36.623Z,52.90
2023-03-04T04:26:05.187Z,52.45
2023-03-04T04:28:33.790Z,51.33
2023-03-04T04:31:02.142Z,53.59
2023-03-04T04:33:30.436Z,53.77
2023-03-04T04:35:58.831Z,52.77
2023-03-04T04:38:27.162Z,51.58
2023-03-04T04:40:57.677Z,50.61
2023-03-04T04:43:26.753Z,53.39
2023-03-04T04:45:55.090Z,53.32
2023-03-04T04:48:23.546Z,51.76
2023-03-04T04:50:57.228Z,51.20
2023-03-04T04:53:25.662Z,51.71
2023-03-04T04:55:54.020Z,51.65
2023-03-04T04:58:22.373Z,51.90
2023-03-04T05:00:50.823Z,50.47
2023-03-04T05:03:19.859Z,50.84
2023-03-04T05:05:50.092Z,50.48
2023-03-04T05:08:18.403Z,50.71
2023-03-04T05:10:46.694Z,49.54
2023-03-04T05:13:15.022Z,52.60
2023-03-04T05:15:43.358Z,50.01
2023-03-04T05:18:11.778Z,50.46
2023-03-04T05:20:40.127Z,51.00
2023-03-04T05:23:08.440Z,49.90
2023-03-04T05:25:36.938Z,51.26
2023-03-04T05:28:06.099Z,48.51
2023-03-04T05:30:34.400Z,48.35
2023-03-04T05:33:02.705Z,49.18
2023-03-04T05:35:31.064Z,49.96
2023-03-04T05:37:59.352Z,48.00
2023-03-04T05:40:27.705Z,49.48
2023-03-04T05:42:55.998Z,49.39
2023-03-04T05:45:25.215Z,47.24
2023-03-04T05:47:53.920Z,49.36
2023-03-04T05:50:23.392Z,49.41
2023-03-04T05:52:51.789Z,49.78
2023-03-04T05:55:20.248Z,48.74
2023-03-04T05:57:48.732Z,45.94
2023-03-04T06:00:18.060Z,48.58
2023-03-04T06:02:46.825Z,47.97
2023-03-04T06:05:16.746Z,47.26
2023-03-04T06:07:45.969Z,47.24
2023-03-04T06:10:17.557Z,47.49
2023-03-04T06:12:46.352Z,46.81
2023-03-04T06:15:15.416Z,46.57
2023-03-04T06:17:44.321Z,47.81
2023-03-04T06:20:13.602Z,46.21
2023-03-04T06:22:42.133Z,46.63
2023-03-04T06:25:11.130Z,47.47
2023-03-04T06:27:39.457Z,43.95
2023-03-04T06:30:10.206Z,45.64
2023-03-04T06:32:38.599Z,45.92
2023-03-04T06:35:07.644Z,46.88
2023-03-04T06:37:35.928Z,46.26
2023-03-04T06:40:04.693Z,44.83
2023-03-04T06:42:32.995Z,43.18
2023-03-04T06:45:01.425Z,45.31
2023-03-04T06:47:30.076Z,43.43
2023-03-04T06:49:58.438Z,46.19
2023-03-04T06:52:26.859Z,44.58
2023-03-04T06:54:55.275Z,46.17
2023-03-04T06:57:23.584Z,46.04
2023-03-04T06:59:51.872Z,45.63
2023-03-04T07:02:20.187Z,46.48
2023-03-04T07:04:48.742Z,45.41
2023-03-04T07:07:17.084Z,43.95
2023-03-04T07:09:45.429Z,45.28
2023-03-04T07:12:13.772Z,45.50
2023-03-04T07:14:42.073Z,46.26
2023-03-04T07:17:10.462Z,44.78
2023-03-04T07:19:39.052Z,44.24
2023-03-04T07:22:07.352Z,44.36
2023-03-04T07:24:35.675Z,45.65
2023-03-04T07:27:04.106Z,46.26
2023-03-04T07:29:32.474Z,44.15
2023-03-04T07:32:00.894Z,44.78
2023-03-04T07:34:29.276Z,45.12
2023-03-04T07:36:57.555Z,44.75
2023-03-04T07:39:25.930Z,46.71
2023-03-04T07:41:54.242Z,46.72
2023-03-04T07:44:22.780Z,44.99
2023-03-04T07:46:51.123Z,45.26
2023-03-04T07:49:19.404Z,44.22
2023-03-04T07:51:47.728Z,44.51
2023-03-04T07:54:16.127Z,45.77
2023-03-04T07:56:44.747Z,44.47
2023-03-04T07:59:13.095Z,43.87
2023-03-04T08:01:41.814Z,44.80
2023-03-04T08:04:10.915Z,43.32
2023-03-04T08:06:42.251Z,45.51
2023-03-04T08:09:12.406Z,45.99
2023-03-04T08:11:40.737Z,45.49
2023-03-04T08:14:10.220Z,45.67
2023-03-04T08:16:39.125Z,46.21
2023-03-04T08:19:09.428Z,45.80
2023-03-04T08:21:37.929Z,43.84
2023-03-04T08:24:10.152Z,45.22
2023-03-04T08:26:44.862Z,46.05
2023-03-04T08:29:17.045Z,45.86
2023-03-04T08:31:48.961Z,45.70
2023-03-04T08:34:18.852Z,45.33
2023-03-04T08:36:47.404Z,46.15
2023-03-04T08:39:17.747Z,45.33
2023-03-04T08:41:47.353Z,44.32
2023-03-04T08:44:16.570Z,46.55
2023-03-04T08:46:45.335Z,45.67
2023-03-04T08:49:15.342Z,45.63
2023-03-04T08:51:45.568Z,45.35
2023-03-04T08:54:13.937Z,45.10
2023-03-04T08:56:42.739Z,44.89
2023-03-04T08:59:11.086Z,46.17
2023-03-04T09:01:39.543Z,46.40
2023-03-04T09:04:08.003Z,46.90
2023-03-04T09:06:36.321Z,46.52
2023-03-04T09:09:05.369Z,45.94
2023-03-04T09:11:33.838Z,44.97
2023-03-04T09:14:02.123Z,46.41
2023-03-04T09:16:30.432Z,45.90
2023-03-04T09:18:58.739Z,46.04
2023-03-04T09:21:27.047Z,45.32
2023-03-04T09:23:55.371Z,45.95
2023-03-04T09:26:29.479Z,46.22
2023-03-04T09:29:02.575Z,45.98
2023-03-04T09:31:31.440Z,46.01
2023-03-04T09:34:01.203Z,45.62
2023-03-04T09:36:29.584Z,45.75
2023-03-04T09:39:02.537Z,46.25
2023-03-04T09:41:43.044Z,46.59
2023-03-04T09:44:38.193Z,46.50
2023-03-04T09:47:18.321Z,46.89
2023-03-04T09:49:55.252Z,46.98
2023-03-04T09:52:56.259Z,47.78
2023-03-04T09:55:38.562Z,47.32
2023-03-04T09:58:25.146Z,47.87
2023-03-04T10:01:05.374Z,47.36
2023-03-04T10:03:55.163Z,47.07
2023-03-04T10:06:24.463Z,47.02
2023-03-04T10:09:14.090Z,47.18
2023-03-04T10:11:46.620Z,47.56
2023-03-04T10:14:39.799Z,47.54
2023-03-04T10:17:14.123Z,48.17
2023-03-04T10:19:54.362Z,48.95
2023-03-04T10:22:33.126Z,49.38
2023-03-04T10:25:47.625Z,49.44
2023-03-04T10:28:22.476Z,49.41
2023-03-04T10:31:27.566Z,49.45
2023-03-04T10:33:55.898Z,49.87
2023-03-04T10:37:01.936Z,50.06
2023-03-04T10:39:51.587Z,50.21
2023-03-04T10:42:20.708Z,49.67
2023-03-04T10:45:00.616Z,49.89
2023-03-04T10:47:36.544Z,50.56
2023-03-04T10:50:07.419Z,50.28
2023-03-04T10:52:50.857Z,50.00
2023-03-04T10:55:23.468Z,50.55
2023-03-04T10:57:57.904Z,50.46
2023-03-04T11:00:35.582Z,50.69
2023-03-04T11:03:29.786Z,51.41
2023-03-04T11:06:26.855Z,52.03
2023-03-04T11:09:00.563Z,51.95
2023-03-04T11:11:46.854Z,52.14
2023-03-04T11:14:29.542Z,52.87
2023-03-04T11:17:04.149Z,53.01
2023-03-04T11:19:44.336Z,53.04
2023-03-04T11:22:18.334Z,53.32
2023-03-04T11:25:10.739Z,53.75
2023-03-04T11:27:49.135Z,53.96
2023-03-04T11:30:42.684Z,54.00
2023-03-04T11:33:15.228Z,54.05
2023-03-04T11:35:53.172Z,53.13
2023-03-04T11:38:26.132Z,52.91
2023-03-04T11:41:00.104Z,53.27
2023-03-04T11:43:50.996Z,53.38
2023-03-04T11:46:36.821Z,53.24
2023-03-04T11:49:11.107Z,53.22
2023-03-04T11:51:55.212Z,53.26
2023-03-04T11:54:23.471Z,53.42
2023-03-04T11:56:54.254Z,53.44
2023-03-04T11:59:36.583Z,53.49
2023-03-04T12:02:16.528Z,53.51
2023-03-04T12:05:13.274Z,53.67
2023-03-04T12:07:53.460Z,53.88
2023-03-04T12:10:47.990Z,53.92
2023-03-04T12:13:40.583Z,53.86
2023-03-04T12:16:18.241Z,54.24
2023-03-04T12:18:55.344Z,54.03
2023-03-04T12:22:04.437Z,53.68
2023-03-04T12:25:04.704Z,53.86
2023-03-04T12:27:38.846Z,53.72
2023-03-04T12:30:25.707Z,53.82
2023-03-04T12:32:59.391Z,53.74
2023-03-04T12:36:06.372Z,53.62
2023-03-04T12:39:11.058Z,53.66
2023-03-04T12:42:13.475Z,53.97
2023-03-04T12:44:55.906Z,53.92
2023-03-04T12:47:49.956Z,53.95
2023-03-04T12:50:33.260Z,54.08
2023-03-04T12:53:19.934Z,53.92
2023-03-04T12:55:49.021Z,54.20
2023-03-04T12:58:25.069Z,53.82
2023-03-04T13:01:05.228Z,54.16
2023-03-04T13:03:48.978Z,54.46
2023-03-04T13:06:54.670Z,54.28
2023-03-04T13:09:30.466Z,54.66
2023-03-04T13:12:19.007Z,54.47
2023-03-04T13:15:14.811Z,54.43
2023-03-04T13:17:58.173Z,54.72
2023-03-04T13:20:32.636Z,55.00
2023-03-04T13:23:15.843Z,55.06
2023-03-04T13:26:04.399Z,54.86
2023-03-04T13:28:36.070Z,55.28
2023-03-04T13:31:16.146Z,54.94
2023-03-04T13:33:53.542Z,55.44
2023-03-04T13:36:34.545Z,55.28
2023-03-04T13:39:27.498Z,55.59
2023-03-04T13:41:57.910Z,55.32
2023-03-04T13:44:59.631Z,55.65
2023-03-04T13:47:45.280Z,56.11
2023-03-04T13:50:37.647Z,55.91
2023-03-04T13:53:43.548Z,56.06
2023-03-04T13:56:20.028Z,55.82
2023-03-04T13:58:52.132Z,56.18
2023-03-04T14:01:28.178Z,55.96
2023-03-04T14:03:57.077Z,56.51
2023-03-04T14:06:31.569Z,56.27
2023-03-04T14:09:00.036Z,56.47
2023-03-04T14:11:34.164Z,56.40
2023-03-04T14:14:07.603Z,56.32
2023-03-04T14:16:42.148Z,56.34
2023-03-04T14:19:18.281Z,56.34
2023-03-04T14:21:48.364Z,56.52
2023-03-04T14:24:20.403Z,56.81
2023-03-04T14:26:49.657Z,56.63
2023-03-04T14:29:30.428Z,57.19
2023-03-04T14:32:01.092Z,56.86
2023-03-04T14:34:37.354Z,56.84
2023-03-04T14:37:20.881Z,57.16
2023-03-04T14:39:54.250Z,56.94
2023-03-04T14:42:26.983Z,57.22
2023-03-04T14:44:59.810Z,57.58
2023-03-04T14:47:28.034Z,57.01
2023-03-04T14:49:56.483Z,57.09
2023-03-04T14:52:43.553Z,56.99
2023-03-04T14:55:29.353Z,57.19
2023-03-04T14:58:10.181Z,57.12
2023-03-04T15:00:44.074Z,56.95
2023-03-04T15:03:21.959Z,57.42
2023-03-04T15:05:50.818Z,57.49
2023-03-04T15:08:38.567Z,57.53
2023-03-04T15:11:08.886Z,57.67
2023-03-04T15:13:50.672Z,57.50
2023-03-04T15:16:24.127Z,57.37
2023-03-04T15:19:25.564Z,57.57
2023-03-04T15:22:05.957Z,57.90
2023-03-04T15:24:34.341Z,57.92
2023-03-04T15:27:05.122Z,58.08
2023-03-04T15:29:33.514Z,58.32
2023-03-04T15:32:02.193Z,58.21
2023-03-04T15:34:30.612Z,57.75
2023-03-04T15:37:01.318Z,57.98
2023-03-04T15:39:29.788Z,58.18
2023-03-04T15:41:58.125Z,57.85
2023-03-04T15:44:26.428Z,58.30
2023-03-04T15:46:54.739Z,57.97
2023-03-04T15:49:23.086Z,58.31
2023-03-04T15:51:51.427Z,58.46
2023-03-04T15:54:19.824Z,58.86
2023-03-04T15:56:48.196Z,58.76
2023-03-04T15:59:18.273Z,58.64
2023-03-04T16:01:47.482Z,59.15
2023-03-04T16:04:18.024Z,59.28
2023-03-04T16:06:48.568Z,59.27
2023-03-04T16:09:20.625Z,59.34
2023-03-04T16:11:49.054Z,59.61
2023-03-04T16:14:18.240Z,59.39
2023-03-04T16:16:47.922Z,59.73
2023-03-04T16:19:16.302Z,59.59
2023-03-04T16:21:44.710Z,59.93
2023-03-04T16:24:20.861Z,60.20
2023-03-04T16:26:49.854Z,59.82
2023-03-04T16:29:18.346Z,59.97
2023-03-04T16:31:46.645Z,59.77
2023-03-04T16:34:15.099Z,60.44
2023-03-04T16:36:43.572Z,60.31
2023-03-04T16:39:21.395Z,60.06
2023-03-04T16:41:50.571Z,60.27
2023-03-04T16:44:19.163Z,60.42
2023-03-04T16:46:47.538Z,60.63
2023-03-04T16:49:15.894Z,60.49
2023-03-04T16:51:49.213Z,60.81
2023-03-04T16:54:25.097Z,60.71
2023-03-04T16:56:53.392Z,62.32
2023-03-04T16:59:21.888Z,62.53
2023-03-04T17:01:50.627Z,63.22
2023-03-04T17:04:18.981Z,64.18
2023-03-04T17:06:47.518Z,63.62
2023-03-04T17:09:15.840Z,63.26
2023-03-04T17:11:44.777Z,63.10
2023-03-04T17:14:13.101Z,63.65
2023-03-04T17:16:41.420Z,64.56
2023-03-04T17:19:09.880Z,64.57
2023-03-04T17:21:38.180Z,64.52
2023-03-04T17:24:06.879Z,64.77
2023-03-04T17:26:35.607Z,64.71
2023-03-04T17:29:03.968Z,64.11
2023-03-04T17:31:32.384Z,63.49
2023-03-04T17:34:00.777Z,66.50
2023-03-04T17:36:29.416Z,66.76
2023-03-04T17:38:58.056Z,67.01
2023-03-04T17:41:27.628Z,67.39
2023-03-04T17:43:57.834Z,68.20
2023-03-04T17:46:28.547Z,68.33
2023-03-04T17:49:00.111Z,68.16
2023-03-04T17:51:37.418Z,68.46
2023-03-04T17:54:08.689Z,69.31
2023-03-04T17:56:40.215Z,69.05
2023-03-04T17:59:12.626Z,69.12
2023-03-04T18:01:41.063Z,70.24
2023-03-04T18:04:09.892Z,69.64
2023-03-04T18:06:38.327Z,69.97
2023-03-04T18:09:07.313Z,70.36
2023-03-04T18:11:38.584Z,70.67
2023-03-04T18:14:07.092Z,72.37
2023-03-04T18:16:35.958Z,71.59
2023-03-04T18:19:05.615Z,72.16
2023-03-04T18:21:34.428Z,72.23
2023-03-04T18:24:02.919Z,72.11
2023-03-04T18:26:31.710Z,72.04
2023-03-04T18:29:00.087Z,72.04
2023-03-04T18:31:33.117Z,72.88
2023-03-04T18:34:05.251Z,73.00
2023-03-04T18:36:34.292Z,73.20
2023-03-04T18:39:05.103Z,73.73
2023-03-04T18:41:33.438Z,73.38
2023-03-04T18:44:01.806Z,73.90
2023-03-04T18:46:42.120Z,74.54
2023-03-04T18:49:11.668Z,74.64
2023-03-04T18:51:40.246Z,75.36
2023-03-04T18:54:08.682Z,76.13
2023-03-04T18:56:46.131Z,75.66
2023-03-04T18:59:24.050Z,75.98
2023-03-04T19:01:55.457Z,75.94
2023-03-04T19:04:28.177Z,76.88
2023-03-04T19:06:56.879Z,76.79
2023-03-04T19:09:25.174Z,76.04
2023-03-04T19:11:53.547Z,76.33
2023-03-04T19:14:21.855Z,76.30
2023-03-04T19:16:50.246Z,76.30
2023-03-04T19:19:18.580Z,76.04
2023-03-04T19:21:47.064Z,77.00
2023-03-04T19:24:15.386Z,76.28
2023-03-04T19:26:43.927Z,76.77
2023-03-04T19:29:12.346Z,76.28
2023-03-04T19:31:41.872Z,75.40
2023-03-04T19:34:10.883Z,75.86
2023-03-04T19:36:39.673Z,77.67
2023-03-04T19:39:09.728Z,77.59
2023-03-04T19:41:38.321Z,77.56
2023-03-04T19:44:06.645Z,77.11
2023-03-04T19:46:35.575Z,77.26
2023-03-04T19:49:05.588Z,77.60
2023-03-04T19:51:33.913Z,76.31
2023-03-04T19:54:02.833Z,76.58
2023-03-04T19:56:31.533Z,76.46
2023-03-04T19:59:00.135Z,77.20
2023-03-04T20:01:34.876Z,76.37
2023-03-04T20:04:10.133Z,76.48
2023-03-04T20:06:44.653Z,75.50
2023-03-04T20:09:14.953Z,72.84
2023-03-04T20:11:56.629Z,74.55
2023-03-04T20:14:26.396Z,73.29
2023-03-04T20:16:54.714Z,74.24
2023-03-04T20:19:22.998Z,73.88
2023-03-04T20:21:51.283Z,72.88
2023-03-04T20:24:20.957Z,72.69
2023-03-04T20:26:49.251Z,73.16
2023-03-04T20:29:17.988Z,72.97
2023-03-04T20:31:47.388Z,73.18
2023-03-04T20:34:15.942Z,73.36
2023-03-04T20:36:44.323Z,73.22
2023-03-04T20:39:27.690Z,73.90
2023-03-04T20:42:00.420Z,75.67
2023-03-04T20:44:28.927Z,76.30
2023-03-04T20:46:57.594Z,76.47
2023-03-04T20:49:28.550Z,78.18
2023-03-04T20:52:03.709Z,78.51
2023-03-04T20:54:32.304Z,78.90
2023-03-04T20:57:00.623Z,79.32
2023-03-04T20:59:29.574Z,78.84
2023-03-04T21:01:58.041Z,78.95
2023-03-04T21:04:26.579Z,79.85
2023-03-04T21:06:55.011Z,79.22
2023-03-04T21:09:24.709Z,79.53
2023-03-04T21:11:53.132Z,79.71
2023-03-04T21:14:31.739Z,78.88
2023-03-04T21:17:02.712Z,78.66
2023-03-04T21:19:37.385Z,78.48
2023-03-04T21:22:05.960Z,77.36
2023-03-04T21:24:37.135Z,77.82
2023-03-04T21:27:07.180Z,77.55
2023-03-04T21:29:35.641Z,77.39
2023-03-04T21:32:21.103Z,77.25
2023-03-04T21:34:52.920Z,76.51
2023-03-04T21:37:25.476Z,77.07
2023-03-04T21:39:54.169Z,77.18
2023-03-04T21:42:23.100Z,76.64
2023-03-04T21:44:51.957Z,77.00
2023-03-04T21:47:23.940Z,76.07
2023-03-04T21:49:52.493Z,75.38
2023-03-04T21:52:23.417Z,75.85
2023-03-04T21:54:51.910Z,75.68
2023-03-04T21:57:20.794Z,75.47
2023-03-04T21:59:50.045Z,75.93
2023-03-04T22:02:21.184Z,76.28
2023-03-04T22:04:49.904Z,76.00
2023-03-04T22:07:18.406Z,75.30
2023-03-04T22:09:46.786Z,74.52
2023-03-04T22:12:17.006Z,75.31
2023-03-04T22:14:46.738Z,75.31
2023-03-04T22:17:15.308Z,76.16
2023-03-04T22:19:43.861Z,77.72
2023-03-04T22:22:12.321Z,77.62
2023-03-04T22:24:40.685Z,78.83
2023-03-04T22:27:08.982Z,79.10
2023-03-04T22:29:37.311Z,79.47
2023-03-04T22:32:06.024Z,79.37
2023-03-04T22:34:34.352Z,80.06
2023-03-04T22:37:02.694Z,80.80
2023-03-04T22:39:30.986Z,80.39
2023-03-04T22:42:00.258Z,80.14
2023-03-04T22:44:28.575Z,80.42
2023-03-04T22:46:56.933Z,80.60
2023-03-04T22:49:25.270Z,80.35
2023-03-04T22:51:53.613Z,80.48
2023-03-04T22:54:21.954Z,80.73
2023-03-04T22:56:50.339Z,80.64
2023-03-04T22:59:18.629Z,80.83
2023-03-04T23:01:47.046Z,81.53
2023-03-04T23:04:15.371Z,82.57
2023-03-04T23:06:43.691Z,83.03
2023-03-04T23:09:11.985Z,82.97
2023-03-04T23:11:40.591Z,82.36
2023-03-04T23:14:09.818Z,82.94
2023-03-04T23:16:43.286Z,82.11
2023-03-04T23:19:17.455Z,82.91
2023-03-04T23:21:46.286Z,82.59
2023-03-04T23:24:15.341Z,82.84
2023-03-04T23:26:45.077Z,83.85
2023-03-04T23:29:16.149Z,84.11
2023-03-04T23:31:45.425Z,83.68
2023-03-04T23:34:14.132Z,84.14
2023-03-04T23:36:43.065Z,82.70
2023-03-04T23:39:13.466Z,83.59
2023-03-04T23:41:41.890Z,83.99
2023-03-04T23:44:12.917Z,83.59
2023-03-04T23:46:41.890Z,83.05
2023-03-04T23:49:14.236Z,81.98
2023-03-04T23:51:45.205Z,82.34
2023-03-04T23:54:15.365Z,82.09
2023-03-04T23:56:43.931Z,81.72
2023-03-04T23:59:13.262Z,81.81
